Rew, Pennsylvania
Current Conditions -  °F | °C
As of 3:19 PM on Thursday 30 Oct 2014 (Local Time) from KBFD Reporting Station
Overcast Overcast  
Wind Chill: 40°   Ceiling: 3500
Heat Index: 44°   Visibility: 10mi
Dew Point: 33°   Wind: 8mph
Humidity: 65%   Direction: 300°WNW
Pressure: 30.02"   Gusts: NA
Location:  41.9°N, 78.54°W
Report Text: KBFD 301919Z AUTO 30007KT 10SM SCT029 OVC035 07/01 A3002 RMK AO2 T00670006
Loading
Personal Weather Stations






























Interactive Weather Map
Tropical Storm Tracking
New forecast layout! Learn more

10-Day Weather Forecast

Advertisements
Track Severe Weather on mobile